Nearby METAR Reports

 

KSJC - San Jose, California, USA
Distance from station: NE 9mi, 14km
Updated: Sun, 20-Aug-2017 5:53am CDT
Clear
Clear
 Wind from SE
Wind: SE 10 mph , 17 km/h
Temperature: 63°F , 17°C
Dew Point: 57°F , 14°C
Humidity: 83%
Barometer: 29.86 inHg , 1011.2 hPa
Clouds: Clear
Visibility: 10 miles , 16 km
2017/08/20 10:53 KSJC 201053Z AUTO 13009KT 10SM CLR 17/14 A2986 RMK AO2 SLP110 T01670139 $
KNUQ - Moffett Nas/Mtn, California, USA
Distance from station: N 9mi, 14km
Updated: Sun, 20-Aug-2017 5:56am CDT
Clear
Clear
 Wind from S
Wind: S 3 mph , 6 km/h
Temperature: 63°F , 17°C
Dew Point: 57°F , 14°C
Humidity: 83%
Barometer: 29.86 inHg , 1011.2 hPa
Clouds: Clear
Visibility: 10 miles , 16 km
2017/08/20 10:56 KNUQ 201056Z 17003KT 10SM CLR 17/14 A2986 RMK AO2 SLP115 T01670139
 
KPAO - Palo Alto, California, USA
Distance from station: NNW 14mi, 23km
Updated: Sat, 19-Aug-2017 10:47pm CDT
NOT Current
Clear
Clear
 Wind from N
Wind: N 14 mph , 22 km/h
Temperature: 64°F , 18°C
Dew Point: 59°F , 15°C
Humidity: 83%
Barometer: 29.87 inHg , 1011.5 hPa
Clouds: Clear
Visibility: 10 miles , 16 km
2017/08/20 03:47 KPAO 200347Z 35012KT 10SM SKC 18/15 A2987 RMK LAST
KRHV - San Jose/Reid, California, USA
Distance from station: ENE 12mi, 19km
Updated: Sat, 19-Aug-2017 11:47pm CDT
NOT Current
Clear
Clear
 Wind from calm
Wind: Calm
Temperature: 66°F , 19°C
Dew Point: 59°F , 15°C
Humidity: 78%
Barometer: 29.89 inHg , 1012.2 hPa
Clouds: Clear
Visibility: 8 miles , 13 km
2017/08/20 04:47 KRHV 200447Z 00000KT 8SM SKC 19/15 A2989 RMK LAST
 
KOAK - Oakland, California, USA
Distance from station: NNW 31mi, 50km
Updated: Sun, 20-Aug-2017 6:14am CDT
Overcast
Overcast
 Wind from W
Wind: W 3 mph , 6 km/h
Temperature: 63°F , 17°C
Dew Point: 57°F , 14°C
Humidity: 83%
Barometer: 29.86 inHg , 1011.2 hPa
Clouds: Overcast
Visibility: 10 miles , 16 km
Cloud details: Few Clouds 700 ft
Mostly cloudy 1200 ft
Overcast 1600 ft
2017/08/20 11:14 KOAK 201114Z 28003KT 10SM FEW007 BKN012 OVC016 17/14 A2986 RMK AO2 T01670144
KSQL - San Carlos Airpo, California, USA
Distance from station: NW 21mi, 34km
Updated: Sun, 20-Aug-2017 6:30am CDT
Overcast
Overcast
 Wind from WNW
Wind: WNW 3 mph , 6 km/h
Temperature: 61°F , 16°C
Dew Point: 55°F , 13°C
Humidity: 83%
Barometer: 29.86 inHg , 1011.2 hPa
Clouds: Overcast
Visibility: 10 miles , 16 km
Cloud details: Overcast 1500 ft
2017/08/20 11:30 KSQL 201130Z AUTO 30003KT 10SM OVC015 16/13 A2986 RMK AO2
 
KSFO - San Francisco, California, USA
Distance from station: NW 30mi, 49km
Updated: Sun, 20-Aug-2017 5:56am CDT
Mostly cloudy
Mostly cloudy
 Wind from SW
Wind: SW 5 mph , 7 km/h
Temperature: 61°F , 16°C
Dew Point: 52°F , 11°C
Humidity: 72%
Barometer: 29.86 inHg , 1011.2 hPa
Clouds: Mostly cloudy
Visibility: 10 miles , 16 km
Cloud details: Few Clouds 1000 ft
Mostly cloudy 1900 ft
2017/08/20 10:56 KSFO 201056Z 22004KT 10SM FEW010 BKN019 16/11 A2986 RMK AO2 SLP110 T01610111 $
KE16 - San Martin, California, USA
Distance from station: ESE 27mi, 43km
Updated: Sun, 20-Aug-2017 6:15am CDT
Overcast
Overcast
 Wind from SE
Wind: SE 9 mph , 15 km/h
Temperature: 61°F , 16°C
Dew Point: 57°F , 14°C
Humidity: 88%
Barometer: 29.90 inHg , 1012.5 hPa
Clouds: Overcast
Visibility: 10 miles , 16 km
Cloud details: Overcast 1100 ft
2017/08/20 11:15 KE16 201115Z AUTO 14008KT 10SM OVC011 16/14 A2990 RMK AO2
 
KWVI - Watsonville, California, USA
Distance from station: SSE 27mi, 44km
Updated: Sun, 20-Aug-2017 5:53am CDT
Overcast
Overcast
 Wind from calm
Wind: Calm
Temperature: 61°F , 16°C
Dew Point: 59°F , 15°C
Humidity: 94%
Barometer: 29.90 inHg , 1012.5 hPa
Clouds: Overcast
Visibility: 10 miles , 16 km
Cloud details: Overcast 1000 ft
2017/08/20 10:53 KWVI 201053Z AUTO 00000KT 10SM OVC010 16/15 A2990 RMK AO2 SLP125 T01560150 TSNO $
KHAF - Half Moon Bay, California, USA
Distance from station: WNW 31mi, 50km
Updated: Sun, 20-Aug-2017 6:35am CDT
Mist, Overcast
Mist, Overcast
 Wind from S
Wind: S 8 mph , 13 km/h
Temperature: 59°F , 15°C
Dew Point: 57°F , 14°C
Humidity: 94%
Barometer: 29.85 inHg , 1010.8 hPa
Summary: Mist
Clouds: Overcast
Visibility: 5 miles , 8 km
Cloud details: Overcast 1200 ft
2017/08/20 11:35 KHAF 201135Z AUTO 19007KT 5SM BR OVC012 15/14 A2985 RMK AO2
 
KHWD - Hayward, California, USA
Distance from station: N 28mi, 44km
Updated: Sun, 20-Aug-2017 5:54am CDT
Overcast
Overcast
 Wind from W
Wind: W 6 mph , 9 km/h
Temperature: 64°F , 18°C
Dew Point: 55°F , 13°C
Humidity: 73%
Barometer: 29.86 inHg , 1011.2 hPa
Clouds: Overcast
Visibility: 10 miles , 16 km
Cloud details: Overcast 1600 ft
2017/08/20 10:54 KHWD 201054Z 26005KT 10SM OVC016 18/13 A2986 RMK AO2 SLP119 T01780128
KLVK - Livermore, California, USA
Distance from station: NNE 31mi, 51km
Updated: Sun, 20-Aug-2017 5:53am CDT
Few Clouds
Few Clouds
 Wind from WNW
Wind: WNW 3 mph , 6 km/h
Temperature: 61°F , 16°C
Dew Point: 57°F , 14°C
Humidity: 88%
Barometer: 29.85 inHg , 1010.8 hPa
Clouds: Few Clouds
Visibility: 10 miles , 16 km
Cloud details: Few Clouds 1300 ft
2017/08/20 10:53 KLVK 201053Z AUTO 30003KT 10SM FEW013 16/14 A2985 RMK AO2 SLP104 T01560139